TimeCST,TemperatureF,Dew PointF,Humidity,Sea Level PressureIn,VisibilityMPH,Wind Direction,Wind SpeedMPH,Gust SpeedMPH,PrecipitationIn,Events,Conditions,WindDirDegrees,DateUTC
12:15 AM,8.4,1.0,72,30.34,10.0,NNW,6.9,-,N/A,,Clear,330,2013-02-20 06:15:00
12:35 AM,7.9,1.0,74,30.35,10.0,NW,5.8,-,N/A,,Clear,320,2013-02-20 06:35:00
12:55 AM,8.4,0.9,71,30.35,10.0,North,10.4,-,N/A,,Clear,360,2013-02-20 06:55:00
1:15 AM,8.1,0.1,70,30.35,10.0,North,11.5,-,N/A,,Clear,350,2013-02-20 07:15:00
1:35 AM,7.5,0.1,72,30.36,10.0,North,8.1,-,N/A,,Clear,350,2013-02-20 07:35:00
1:55 AM,7.3,0.5,74,30.35,10.0,North,8.1,-,N/A,,Clear,360,2013-02-20 07:55:00
2:15 AM,7.0,0.5,75,30.36,10.0,North,5.8,-,N/A,,Clear,10,2013-02-20 08:15:00
2:35 AM,6.8,0.5,75,30.36,10.0,North,6.9,-,N/A,,Clear,360,2013-02-20 08:35:00
2:55 AM,6.6,0.1,75,30.35,10.0,North,6.9,-,N/A,,Clear,360,2013-02-20 08:55:00
3:15 AM,6.4,0.1,75,30.35,10.0,North,6.9,-,N/A,,Clear,350,2013-02-20 09:15:00
3:35 AM,6.1,-0.0,76,30.34,10.0,North,5.8,-,N/A,,Clear,10,2013-02-20 09:35:00
3:55 AM,5.9,-0.6,75,30.33,10.0,NNE,9.2,-,N/A,,Clear,20,2013-02-20 09:55:00
4:15 AM,5.7,-0.6,75,30.32,10.0,NNE,9.2,-,N/A,,Clear,30,2013-02-20 10:15:00
4:35 AM,5.4,-0.9,75,30.32,10.0,NNE,5.8,-,N/A,,Clear,20,2013-02-20 10:35:00
4:55 AM,5.4,-0.8,76,30.33,10.0,NE,5.8,-,N/A,,Clear,40,2013-02-20 10:55:00
5:15 AM,5.4,-0.8,76,30.31,10.0,NNE,11.5,-,N/A,,Clear,30,2013-02-20 11:15:00
5:35 AM,5.2,-1.1,75,30.31,10.0,NNE,9.2,-,N/A,,Clear,30,2013-02-20 11:35:00
5:55 AM,5.0,-1.3,75,30.31,10.0,NE,8.1,-,N/A,,Clear,40,2013-02-20 11:55:00
6:15 AM,5.0,-2.2,72,30.31,10.0,NE,9.2,-,N/A,,Clear,50,2013-02-20 12:15:00
6:35 AM,4.6,-2.6,72,30.31,10.0,NE,10.4,-,N/A,,Clear,40,2013-02-20 12:35:00
6:55 AM,4.3,-2.2,75,30.32,10.0,ENE,8.1,-,N/A,,Clear,60,2013-02-20 12:55:00
7:15 AM,4.1,-2.2,75,30.33,10.0,NE,8.1,-,N/A,,Clear,50,2013-02-20 13:15:00
7:35 AM,4.6,-1.8,75,30.33,10.0,ENE,8.1,-,N/A,,Clear,60,2013-02-20 13:35:00
7:55 AM,5.4,-1.8,72,30.34,10.0,ENE,10.4,-,N/A,,Clear,70,2013-02-20 13:55:00
8:15 AM,6.1,-1.5,71,30.33,10.0,ENE,11.5,-,N/A,,Clear,60,2013-02-20 14:15:00
8:35 AM,6.6,-1.5,69,30.34,10.0,ENE,10.4,-,N/A,,Clear,70,2013-02-20 14:35:00
8:55 AM,8.4,-0.0,68,30.34,10.0,East,8.1,-,N/A,,Scattered Clouds,80,2013-02-20 14:55:00
9:15 AM,9.1,-0.2,66,30.33,10.0,ENE,9.2,-,N/A,,Mostly Cloudy,70,2013-02-20 15:15:00
9:35 AM,10.2,0.1,64,30.34,10.0,East,9.2,-,N/A,,Mostly Cloudy,80,2013-02-20 15:35:00
9:55 AM,11.8,1.0,62,30.35,10.0,East,9.2,-,N/A,,Scattered Clouds,100,2013-02-20 15:55:00
10:15 AM,13.3,1.8,60,30.36,10.0,ESE,9.2,-,N/A,,Scattered Clouds,120,2013-02-20 16:15:00
10:35 AM,14.5,1.9,57,30.35,10.0,ESE,8.1,-,N/A,,Scattered Clouds,110,2013-02-20 16:35:00
10:55 AM,16.2,2.5,55,30.35,10.0,East,5.8,-,N/A,,Clear,90,2013-02-20 16:55:00
11:15 AM,17.6,2.5,52,30.35,10.0,East,9.2,-,N/A,,Clear,100,2013-02-20 17:15:00
11:55 AM,19.0,3.4,51,30.33,10.0,ENE,9.2,-,N/A,,Clear,70,2013-02-20 17:55:00
12:15 PM,20.1,3.6,49,30.33,10.0,East,8.1,-,N/A,,Scattered Clouds,100,2013-02-20 18:15:00
12:35 PM,20.8,3.6,47,30.32,10.0,ESE,5.8,-,N/A,,Mostly Cloudy,120,2013-02-20 18:35:00
12:55 PM,22.8,4.5,45,30.31,10.0,ESE,6.9,-,N/A,,Overcast,120,2013-02-20 18:55:00
1:15 PM,22.8,3.9,44,30.30,10.0,SSE,4.6,-,N/A,,Mostly Cloudy,160,2013-02-20 19:15:00
1:35 PM,23.4,4.3,44,30.28,10.0,ESE,8.1,-,N/A,,Scattered Clouds,120,2013-02-20 19:35:00
1:55 PM,23.0,3.9,44,30.28,10.0,East,8.1,-,N/A,,Scattered Clouds,100,2013-02-20 19:55:00
2:15 PM,23.4,4.1,44,30.26,10.0,East,8.1,-,N/A,,Mostly Cloudy,90,2013-02-20 20:15:00
2:55 PM,24.6,4.5,42,30.24,10.0,East,10.4,-,N/A,,Mostly Cloudy,80,2013-02-20 20:55:00
3:15 PM,25.5,4.6,41,30.25,10.0,East,10.4,-,N/A,,Mostly Cloudy,90,2013-02-20 21:15:00
3:35 PM,25.2,4.1,41,30.23,10.0,East,10.4,-,N/A,,Mostly Cloudy,90,2013-02-20 21:35:00
3:55 PM,25.2,4.5,41,30.23,10.0,East,11.5,-,N/A,,Scattered Clouds,80,2013-02-20 21:55:00
4:15 PM,25.3,4.6,41,30.23,10.0,ESE,9.2,-,N/A,,Mostly Cloudy,110,2013-02-20 22:15:00
4:35 PM,25.3,5.0,42,30.22,10.0,East,8.1,-,N/A,,Scattered Clouds,90,2013-02-20 22:35:00
4:55 PM,25.3,4.6,41,30.21,10.0,East,11.5,-,N/A,,Mostly Cloudy,100,2013-02-20 22:55:00
5:15 PM,25.7,5.4,42,30.21,10.0,East,10.4,-,N/A,,Overcast,90,2013-02-20 23:15:00
5:35 PM,25.5,5.4,42,30.20,10.0,East,10.4,-,N/A,,Overcast,100,2013-02-20 23:35:00
5:55 PM,25.5,5.7,43,30.20,10.0,East,10.4,-,N/A,,Overcast,90,2013-02-20 23:55:00
6:15 PM,25.3,5.5,43,30.19,10.0,East,9.2,-,N/A,,Overcast,90,2013-02-21 00:15:00
6:35 PM,25.3,5.9,44,30.20,10.0,East,10.4,-,N/A,,Overcast,90,2013-02-21 00:35:00
6:55 PM,25.2,5.7,44,30.20,10.0,East,10.4,-,N/A,,Overcast,90,2013-02-21 00:55:00
7:15 PM,25.2,6.6,45,30.20,10.0,East,10.4,-,N/A,,Overcast,90,2013-02-21 01:15:00
7:35 PM,24.8,6.3,45,30.19,10.0,East,8.1,-,N/A,,Overcast,80,2013-02-21 01:35:00
7:55 PM,24.6,6.3,46,30.19,10.0,East,11.5,16.1,N/A,,Mostly Cloudy,80,2013-02-21 01:55:00
8:15 PM,24.6,6.8,47,30.18,10.0,ENE,10.4,-,N/A,,Mostly Cloudy,70,2013-02-21 02:15:00
8:35 PM,24.6,7.0,47,30.19,10.0,East,10.4,-,N/A,,Overcast,80,2013-02-21 02:35:00
8:55 PM,24.3,7.0,48,30.19,10.0,East,11.5,-,N/A,,Overcast,90,2013-02-21 02:55:00
9:15 PM,24.1,7.0,48,30.21,10.0,East,15.0,-,N/A,,Overcast,100,2013-02-21 03:15:00
9:35 PM,23.9,7.2,49,30.19,10.0,East,12.7,-,N/A,,Overcast,90,2013-02-21 03:35:00
9:55 PM,23.7,7.3,50,30.20,10.0,East,12.7,-,N/A,,Overcast,80,2013-02-21 03:55:00
10:15 PM,23.4,7.2,50,30.21,10.0,East,12.7,-,N/A,,Overcast,90,2013-02-21 04:15:00
10:35 PM,23.0,7.5,52,30.23,10.0,East,11.5,-,N/A,,Overcast,80,2013-02-21 04:35:00
10:55 PM,22.8,7.5,52,30.23,10.0,East,13.8,-,N/A,,Overcast,80,2013-02-21 04:55:00
11:15 PM,22.6,7.3,52,30.22,10.0,East,11.5,-,N/A,,Overcast,80,2013-02-21 05:15:00
11:35 PM,22.6,7.3,52,30.22,10.0,East,11.5,-,N/A,,Overcast,80,2013-02-21 05:35:00
11:55 PM,22.5,7.5,53,30.21,10.0,ENE,10.4,-,N/A,,Overcast,70,2013-02-21 05:55:00